sensor_id;sensor_type;location;lat;lon;timestamp;P1;durP1;ratioP1;P2;durP2;ratioP2
5054;SDS011;13829;48.990;8.346;2023-03-01T00:00:59;12.43;;;9.03;;
5054;SDS011;13829;48.990;8.346;2023-03-01T00:03:27;10.30;;;8.63;;
5054;SDS011;13829;48.990;8.346;2023-03-01T00:05:56;13.97;;;9.73;;
5054;SDS011;13829;48.990;8.346;2023-03-01T00:08:23;14.87;;;9.27;;
5054;SDS011;13829;48.990;8.346;2023-03-01T00:10:59;14.30;;;9.57;;
5054;SDS011;13829;48.990;8.346;2023-03-01T00:13:28;13.97;;;9.47;;
5054;SDS011;13829;48.990;8.346;2023-03-01T00:15:55;13.63;;;9.60;;
5054;SDS011;13829;48.990;8.346;2023-03-01T00:18:22;12.10;;;9.27;;
5054;SDS011;13829;48.990;8.346;2023-03-01T00:20:49;11.50;;;8.67;;
5054;SDS011;13829;48.990;8.346;2023-03-01T00:23:18;15.13;;;9.53;;
5054;SDS011;13829;48.990;8.346;2023-03-01T00:25:46;12.57;;;9.47;;
5054;SDS011;13829;48.990;8.346;2023-03-01T00:28:13;12.63;;;9.23;;
5054;SDS011;13829;48.990;8.346;2023-03-01T00:30:40;12.97;;;9.60;;
5054;SDS011;13829;48.990;8.346;2023-03-01T00:33:07;12.20;;;9.37;;
5054;SDS011;13829;48.990;8.346;2023-03-01T00:35:35;13.40;;;10.10;;
5054;SDS011;13829;48.990;8.346;2023-03-01T00:38:02;11.67;;;8.97;;
5054;SDS011;13829;48.990;8.346;2023-03-01T00:40:32;14.07;;;9.63;;
5054;SDS011;13829;48.990;8.346;2023-03-01T00:43:01;12.87;;;9.40;;
5054;SDS011;13829;48.990;8.346;2023-03-01T00:45:30;12.10;;;9.30;;
5054;SDS011;13829;48.990;8.346;2023-03-01T00:47:57;15.93;;;10.33;;
5054;SDS011;13829;48.990;8.346;2023-03-01T00:50:24;15.17;;;9.63;;
5054;SDS011;13829;48.990;8.346;2023-03-01T00:52:52;14.07;;;9.30;;
5054;SDS011;13829;48.990;8.346;2023-03-01T00:55:20;13.73;;;9.90;;
5054;SDS011;13829;48.990;8.346;2023-03-01T00:57:48;15.33;;;9.93;;
5054;SDS011;13829;48.990;8.346;2023-03-01T01:00:16;13.80;;;9.60;;
5054;SDS011;13829;48.990;8.346;2023-03-01T01:02:44;13.97;;;9.77;;
5054;SDS011;13829;48.990;8.346;2023-03-01T01:05:12;12.10;;;8.90;;
5054;SDS011;13829;48.990;8.346;2023-03-01T01:07:39;14.70;;;9.83;;
5054;SDS011;13829;48.990;8.346;2023-03-01T01:10:06;13.00;;;9.23;;
5054;SDS011;13829;48.990;8.346;2023-03-01T01:12:41;14.53;;;9.33;;
5054;SDS011;13829;48.990;8.346;2023-03-01T01:15:11;13.10;;;9.10;;
5054;SDS011;13829;48.990;8.346;2023-03-01T01:17:42;15.40;;;9.97;;
5054;SDS011;13829;48.990;8.346;2023-03-01T01:20:09;14.73;;;9.10;;
5054;SDS011;13829;48.990;8.346;2023-03-01T01:22:37;16.00;;;10.80;;
5054;SDS011;13829;48.990;8.346;2023-03-01T01:25:05;13.40;;;9.37;;
5054;SDS011;13829;48.990;8.346;2023-03-01T01:27:32;12.57;;;9.47;;
5054;SDS011;13829;48.990;8.346;2023-03-01T01:29:59;11.43;;;9.07;;
5054;SDS011;13829;48.990;8.346;2023-03-01T01:32:28;14.90;;;9.87;;
5054;SDS011;13829;48.990;8.346;2023-03-01T01:34:55;15.33;;;10.33;;
5054;SDS011;13829;48.990;8.346;2023-03-01T01:37:22;12.30;;;9.50;;
5054;SDS011;13829;48.990;8.346;2023-03-01T01:39:56;14.03;;;9.20;;
5054;SDS011;13829;48.990;8.346;2023-03-01T01:42:23;13.50;;;9.40;;
5054;SDS011;13829;48.990;8.346;2023-03-01T01:47:54;13.50;;;9.87;;
5054;SDS011;13829;48.990;8.346;2023-03-01T01:50:26;13.17;;;9.30;;
5054;SDS011;13829;48.990;8.346;2023-03-01T01:53:02;15.17;;;10.40;;
5054;SDS011;13829;48.990;8.346;2023-03-01T01:55:39;14.23;;;9.93;;
5054;SDS011;13829;48.990;8.346;2023-03-01T01:58:10;13.80;;;9.03;;
5054;SDS011;13829;48.990;8.346;2023-03-01T02:00:41;13.17;;;9.10;;
5054;SDS011;13829;48.990;8.346;2023-03-01T02:03:10;14.93;;;10.40;;
5054;SDS011;13829;48.990;8.346;2023-03-01T02:05:43;14.00;;;9.23;;
5054;SDS011;13829;48.990;8.346;2023-03-01T02:08:18;15.47;;;9.90;;
5054;SDS011;13829;48.990;8.346;2023-03-01T02:10:48;13.10;;;10.17;;
5054;SDS011;13829;48.990;8.346;2023-03-01T02:13:17;14.10;;;10.47;;
5054;SDS011;13829;48.990;8.346;2023-03-01T02:15:44;14.70;;;10.70;;
5054;SDS011;13829;48.990;8.346;2023-03-01T02:18:14;18.60;;;10.57;;
5054;SDS011;13829;48.990;8.346;2023-03-01T02:20:49;14.93;;;10.40;;
5054;SDS011;13829;48.990;8.346;2023-03-01T02:23:35;16.27;;;10.60;;
5054;SDS011;13829;48.990;8.346;2023-03-01T02:26:04;12.67;;;9.77;;
5054;SDS011;13829;48.990;8.346;2023-03-01T02:28:42;13.70;;;8.97;;
5054;SDS011;13829;48.990;8.346;2023-03-01T02:31:11;13.77;;;9.37;;
5054;SDS011;13829;48.990;8.346;2023-03-01T02:34:01;14.70;;;10.03;;
5054;SDS011;13829;48.990;8.346;2023-03-01T02:36:30;14.87;;;9.03;;
5054;SDS011;13829;48.990;8.346;2023-03-01T02:39:02;11.20;;;8.77;;
5054;SDS011;13829;48.990;8.346;2023-03-01T02:41:33;13.53;;;9.97;;
5054;SDS011;13829;48.990;8.346;2023-03-01T02:44:05;16.83;;;10.90;;
5054;SDS011;13829;48.990;8.346;2023-03-01T02:46:33;14.70;;;10.20;;
5054;SDS011;13829;48.990;8.346;2023-03-01T02:49:15;12.90;;;9.27;;
5054;SDS011;13829;48.990;8.346;2023-03-01T02:51:50;13.60;;;9.70;;
5054;SDS011;13829;48.990;8.346;2023-03-01T02:54:42;14.83;;;9.77;;
5054;SDS011;13829;48.990;8.346;2023-03-01T02:57:17;14.00;;;9.10;;
5054;SDS011;13829;48.990;8.346;2023-03-01T02:59:48;14.17;;;9.80;;
5054;SDS011;13829;48.990;8.346;2023-03-01T03:02:19;14.00;;;10.50;;
5054;SDS011;13829;48.990;8.346;2023-03-01T03:05:00;14.87;;;10.07;;
5054;SDS011;13829;48.990;8.346;2023-03-01T03:07:31;15.27;;;10.30;;
5054;SDS011;13829;48.990;8.346;2023-03-01T03:09:59;15.03;;;10.17;;
5054;SDS011;13829;48.990;8.346;2023-03-01T03:12:28;16.80;;;11.27;;
5054;SDS011;13829;48.990;8.346;2023-03-01T03:14:56;16.93;;;11.23;;
5054;SDS011;13829;48.990;8.346;2023-03-01T03:17:23;16.20;;;11.17;;
5054;SDS011;13829;48.990;8.346;2023-03-01T03:19:50;15.80;;;11.07;;
5054;SDS011;13829;48.990;8.346;2023-03-01T03:22:17;14.53;;;10.47;;
5054;SDS011;13829;48.990;8.346;2023-03-01T03:24:44;15.93;;;11.13;;
5054;SDS011;13829;48.990;8.346;2023-03-01T03:27:11;15.10;;;10.97;;
5054;SDS011;13829;48.990;8.346;2023-03-01T03:29:38;15.70;;;10.60;;
5054;SDS011;13829;48.990;8.346;2023-03-01T03:32:06;15.40;;;9.87;;
5054;SDS011;13829;48.990;8.346;2023-03-01T03:34:33;16.40;;;11.70;;
5054;SDS011;13829;48.990;8.346;2023-03-01T03:37:00;14.07;;;10.50;;
5054;SDS011;13829;48.990;8.346;2023-03-01T03:39:27;18.27;;;12.73;;
5054;SDS011;13829;48.990;8.346;2023-03-01T03:41:59;14.27;;;11.13;;
5054;SDS011;13829;48.990;8.346;2023-03-01T03:44:27;16.70;;;11.33;;
5054;SDS011;13829;48.990;8.346;2023-03-01T03:46:54;17.07;;;10.73;;
5054;SDS011;13829;48.990;8.346;2023-03-01T03:49:22;14.57;;;10.50;;
5054;SDS011;13829;48.990;8.346;2023-03-01T03:51:49;15.13;;;11.20;;
5054;SDS011;13829;48.990;8.346;2023-03-01T03:54:16;15.33;;;10.33;;
5054;SDS011;13829;48.990;8.346;2023-03-01T03:56:43;16.30;;;11.10;;
5054;SDS011;13829;48.990;8.346;2023-03-01T03:59:10;14.40;;;11.13;;
5054;SDS011;13829;48.990;8.346;2023-03-01T04:01:37;16.77;;;10.87;;
5054;SDS011;13829;48.990;8.346;2023-03-01T04:04:04;17.17;;;10.67;;
5054;SDS011;13829;48.990;8.346;2023-03-01T04:06:34;15.00;;;11.33;;
5054;SDS011;13829;48.990;8.346;2023-03-01T04:09:01;15.57;;;10.47;;
5054;SDS011;13829;48.990;8.346;2023-03-01T04:11:28;18.77;;;12.40;;
5054;SDS011;13829;48.990;8.346;2023-03-01T04:13:56;15.07;;;10.13;;
5054;SDS011;13829;48.990;8.346;2023-03-01T04:16:25;15.43;;;10.63;;
5054;SDS011;13829;48.990;8.346;2023-03-01T04:18:52;15.43;;;11.27;;
5054;SDS011;13829;48.990;8.346;2023-03-01T04:21:19;15.10;;;11.00;;
5054;SDS011;13829;48.990;8.346;2023-03-01T04:23:48;15.07;;;11.10;;
5054;SDS011;13829;48.990;8.346;2023-03-01T04:26:17;16.67;;;11.73;;
5054;SDS011;13829;48.990;8.346;2023-03-01T04:28:44;16.20;;;10.80;;
5054;SDS011;13829;48.990;8.346;2023-03-01T04:31:14;17.20;;;10.53;;
5054;SDS011;13829;48.990;8.346;2023-03-01T04:33:46;17.63;;;11.17;;
5054;SDS011;13829;48.990;8.346;2023-03-01T04:36:16;21.23;;;12.23;;
5054;SDS011;13829;48.990;8.346;2023-03-01T04:38:45;14.13;;;10.40;;
5054;SDS011;13829;48.990;8.346;2023-03-01T04:41:15;19.50;;;11.47;;
5054;SDS011;13829;48.990;8.346;2023-03-01T04:43:45;18.23;;;12.60;;
5054;SDS011;13829;48.990;8.346;2023-03-01T04:46:14;16.57;;;10.90;;
5054;SDS011;13829;48.990;8.346;2023-03-01T04:48:43;15.97;;;11.53;;
5054;SDS011;13829;48.990;8.346;2023-03-01T04:51:12;18.33;;;11.33;;
5054;SDS011;13829;48.990;8.346;2023-03-01T04:53:39;17.40;;;11.93;;
5054;SDS011;13829;48.990;8.346;2023-03-01T04:56:08;19.00;;;12.50;;
5054;SDS011;13829;48.990;8.346;2023-03-01T04:58:37;18.23;;;11.87;;
5054;SDS011;13829;48.990;8.346;2023-03-01T05:01:07;19.97;;;13.77;;
5054;SDS011;13829;48.990;8.346;2023-03-01T05:03:40;18.67;;;11.63;;
5054;SDS011;13829;48.990;8.346;2023-03-01T05:06:08;17.07;;;11.67;;
5054;SDS011;13829;48.990;8.346;2023-03-01T05:08:36;17.80;;;12.40;;
5054;SDS011;13829;48.990;8.346;2023-03-01T05:11:04;16.97;;;11.60;;
5054;SDS011;13829;48.990;8.346;2023-03-01T05:13:34;15.20;;;11.37;;
5054;SDS011;13829;48.990;8.346;2023-03-01T05:16:04;17.00;;;11.33;;
5054;SDS011;13829;48.990;8.346;2023-03-01T05:18:36;19.53;;;11.93;;
5054;SDS011;13829;48.990;8.346;2023-03-01T05:21:05;19.43;;;12.97;;
5054;SDS011;13829;48.990;8.346;2023-03-01T05:23:33;18.70;;;11.60;;
5054;SDS011;13829;48.990;8.346;2023-03-01T05:26:01;17.63;;;11.47;;
5054;SDS011;13829;48.990;8.346;2023-03-01T05:28:31;17.60;;;12.63;;
5054;SDS011;13829;48.990;8.346;2023-03-01T05:30:59;16.10;;;12.20;;
5054;SDS011;13829;48.990;8.346;2023-03-01T05:33:26;18.87;;;12.30;;
5054;SDS011;13829;48.990;8.346;2023-03-01T05:35:54;19.90;;;12.27;;
5054;SDS011;13829;48.990;8.346;2023-03-01T05:38:21;17.23;;;11.80;;
5054;SDS011;13829;48.990;8.346;2023-03-01T05:40:48;16.73;;;12.07;;
5054;SDS011;13829;48.990;8.346;2023-03-01T05:43:16;16.07;;;12.20;;
5054;SDS011;13829;48.990;8.346;2023-03-01T05:45:44;20.43;;;13.43;;
5054;SDS011;13829;48.990;8.346;2023-03-01T05:48:13;18.87;;;11.93;;
5054;SDS011;13829;48.990;8.346;2023-03-01T05:50:40;19.63;;;11.90;;
5054;SDS011;13829;48.990;8.346;2023-03-01T05:53:11;18.03;;;12.63;;
5054;SDS011;13829;48.990;8.346;2023-03-01T05:55:40;18.27;;;12.03;;
5054;SDS011;13829;48.990;8.346;2023-03-01T05:58:09;19.00;;;12.30;;
5054;SDS011;13829;48.990;8.346;2023-03-01T06:00:39;22.83;;;13.33;;
5054;SDS011;13829;48.990;8.346;2023-03-01T06:03:09;20.57;;;12.80;;
5054;SDS011;13829;48.990;8.346;2023-03-01T06:05:39;18.27;;;12.90;;
5054;SDS011;13829;48.990;8.346;2023-03-01T06:08:08;18.97;;;11.90;;
5054;SDS011;13829;48.990;8.346;2023-03-01T06:10:37;18.93;;;12.67;;
5054;SDS011;13829;48.990;8.346;2023-03-01T06:13:04;17.37;;;12.20;;
5054;SDS011;13829;48.990;8.346;2023-03-01T06:15:31;19.33;;;12.30;;
5054;SDS011;13829;48.990;8.346;2023-03-01T06:17:58;23.33;;;13.87;;
5054;SDS011;13829;48.990;8.346;2023-03-01T06:20:26;20.80;;;13.63;;
5054;SDS011;13829;48.990;8.346;2023-03-01T06:22:56;22.23;;;14.20;;
5054;SDS011;13829;48.990;8.346;2023-03-01T06:25:25;22.43;;;13.53;;
5054;SDS011;13829;48.990;8.346;2023-03-01T06:27:53;19.83;;;12.90;;
5054;SDS011;13829;48.990;8.346;2023-03-01T06:30:20;18.77;;;12.80;;
5054;SDS011;13829;48.990;8.346;2023-03-01T06:32:49;19.50;;;12.43;;
5054;SDS011;13829;48.990;8.346;2023-03-01T06:35:17;20.23;;;12.47;;
5054;SDS011;13829;48.990;8.346;2023-03-01T06:37:46;19.30;;;12.50;;
5054;SDS011;13829;48.990;8.346;2023-03-01T06:40:15;18.40;;;12.60;;
5054;SDS011;13829;48.990;8.346;2023-03-01T06:42:43;18.87;;;12.33;;
5054;SDS011;13829;48.990;8.346;2023-03-01T06:45:15;19.27;;;13.33;;
5054;SDS011;13829;48.990;8.346;2023-03-01T06:47:44;22.10;;;13.40;;
5054;SDS011;13829;48.990;8.346;2023-03-01T06:50:12;22.07;;;12.70;;
5054;SDS011;13829;48.990;8.346;2023-03-01T06:52:40;20.83;;;13.53;;
5054;SDS011;13829;48.990;8.346;2023-03-01T06:55:09;21.17;;;13.33;;
5054;SDS011;13829;48.990;8.346;2023-03-01T06:57:37;21.77;;;14.00;;
5054;SDS011;13829;48.990;8.346;2023-03-01T07:00:05;19.10;;;12.60;;
5054;SDS011;13829;48.990;8.346;2023-03-01T07:02:33;21.03;;;13.87;;
5054;SDS011;13829;48.990;8.346;2023-03-01T07:05:00;18.83;;;13.70;;
5054;SDS011;13829;48.990;8.346;2023-03-01T07:07:27;23.00;;;13.43;;
5054;SDS011;13829;48.990;8.346;2023-03-01T07:09:54;22.60;;;13.53;;
5054;SDS011;13829;48.990;8.346;2023-03-01T07:12:21;21.60;;;13.77;;
5054;SDS011;13829;48.990;8.346;2023-03-01T07:14:49;21.63;;;13.97;;
5054;SDS011;13829;48.990;8.346;2023-03-01T07:17:16;20.93;;;13.40;;
5054;SDS011;13829;48.990;8.346;2023-03-01T07:19:43;20.97;;;13.03;;
5054;SDS011;13829;48.990;8.346;2023-03-01T07:22:10;20.60;;;12.87;;
5054;SDS011;13829;48.990;8.346;2023-03-01T07:24:38;17.47;;;12.10;;
5054;SDS011;13829;48.990;8.346;2023-03-01T07:27:04;20.20;;;13.00;;
5054;SDS011;13829;48.990;8.346;2023-03-01T07:29:31;19.90;;;13.30;;
5054;SDS011;13829;48.990;8.346;2023-03-01T07:32:02;20.87;;;12.13;;
5054;SDS011;13829;48.990;8.346;2023-03-01T07:34:30;15.57;;;12.87;;
5054;SDS011;13829;48.990;8.346;2023-03-01T07:36:57;19.90;;;13.93;;
5054;SDS011;13829;48.990;8.346;2023-03-01T07:39:24;18.87;;;14.27;;
5054;SDS011;13829;48.990;8.346;2023-03-01T07:41:51;20.73;;;14.33;;
5054;SDS011;13829;48.990;8.346;2023-03-01T07:44:18;21.57;;;14.87;;
5054;SDS011;13829;48.990;8.346;2023-03-01T07:46:45;22.53;;;14.67;;
5054;SDS011;13829;48.990;8.346;2023-03-01T07:49:14;22.30;;;13.90;;
5054;SDS011;13829;48.990;8.346;2023-03-01T07:51:42;21.57;;;14.53;;
5054;SDS011;13829;48.990;8.346;2023-03-01T07:54:09;18.33;;;13.23;;
5054;SDS011;13829;48.990;8.346;2023-03-01T07:56:36;19.13;;;14.43;;
5054;SDS011;13829;48.990;8.346;2023-03-01T07:59:03;21.87;;;14.60;;
5054;SDS011;13829;48.990;8.346;2023-03-01T08:01:30;20.70;;;15.03;;
5054;SDS011;13829;48.990;8.346;2023-03-01T08:03:57;20.37;;;14.93;;
5054;SDS011;13829;48.990;8.346;2023-03-01T08:06:25;24.60;;;15.40;;
5054;SDS011;13829;48.990;8.346;2023-03-01T08:08:52;20.50;;;14.70;;
5054;SDS011;13829;48.990;8.346;2023-03-01T08:11:20;19.67;;;14.60;;
5054;SDS011;13829;48.990;8.346;2023-03-01T08:13:48;18.03;;;13.37;;
5054;SDS011;13829;48.990;8.346;2023-03-01T08:16:15;22.90;;;15.30;;
5054;SDS011;13829;48.990;8.346;2023-03-01T08:18:42;18.93;;;13.87;;
5054;SDS011;13829;48.990;8.346;2023-03-01T08:21:10;20.33;;;14.40;;
5054;SDS011;13829;48.990;8.346;2023-03-01T08:23:41;22.43;;;15.20;;
5054;SDS011;13829;48.990;8.346;2023-03-01T08:26:10;18.63;;;14.33;;
5054;SDS011;13829;48.990;8.346;2023-03-01T08:28:40;23.33;;;15.30;;
5054;SDS011;13829;48.990;8.346;2023-03-01T08:31:14;21.03;;;15.07;;
5054;SDS011;13829;48.990;8.346;2023-03-01T08:33:44;22.27;;;15.17;;
5054;SDS011;13829;48.990;8.346;2023-03-01T08:36:15;19.37;;;14.33;;
5054;SDS011;13829;48.990;8.346;2023-03-01T08:38:44;22.57;;;14.87;;
5054;SDS011;13829;48.990;8.346;2023-03-01T08:41:11;22.40;;;14.93;;
5054;SDS011;13829;48.990;8.346;2023-03-01T08:43:38;20.77;;;13.50;;
5054;SDS011;13829;48.990;8.346;2023-03-01T08:46:05;23.20;;;15.03;;
5054;SDS011;13829;48.990;8.346;2023-03-01T08:48:32;21.27;;;15.23;;
5054;SDS011;13829;48.990;8.346;2023-03-01T08:51:06;21.47;;;15.60;;
5054;SDS011;13829;48.990;8.346;2023-03-01T08:53:34;20.37;;;14.70;;
5054;SDS011;13829;48.990;8.346;2023-03-01T08:56:02;20.23;;;14.20;;
5054;SDS011;13829;48.990;8.346;2023-03-01T08:58:30;22.07;;;14.90;;
5054;SDS011;13829;48.990;8.346;2023-03-01T09:00:58;23.03;;;15.07;;
5054;SDS011;13829;48.990;8.346;2023-03-01T09:03:25;22.60;;;14.80;;
5054;SDS011;13829;48.990;8.346;2023-03-01T09:05:53;20.43;;;14.90;;
5054;SDS011;13829;48.990;8.346;2023-03-01T09:08:27;20.33;;;14.53;;
5054;SDS011;13829;48.990;8.346;2023-03-01T09:10:54;23.77;;;15.13;;
5054;SDS011;13829;48.990;8.346;2023-03-01T09:13:22;20.30;;;14.33;;
5054;SDS011;13829;48.990;8.346;2023-03-01T09:15:50;20.03;;;13.87;;
5054;SDS011;13829;48.990;8.346;2023-03-01T09:18:17;21.77;;;14.77;;
5054;SDS011;13829;48.990;8.346;2023-03-01T09:20:44;22.90;;;14.67;;
5054;SDS011;13829;48.990;8.346;2023-03-01T09:23:11;21.20;;;15.23;;
5054;SDS011;13829;48.990;8.346;2023-03-01T09:25:40;19.93;;;14.27;;
5054;SDS011;13829;48.990;8.346;2023-03-01T09:28:07;24.33;;;14.70;;
5054;SDS011;13829;48.990;8.346;2023-03-01T09:30:37;22.50;;;15.43;;
5054;SDS011;13829;48.990;8.346;2023-03-01T09:33:04;23.17;;;14.40;;
5054;SDS011;13829;48.990;8.346;2023-03-01T09:35:31;23.33;;;15.17;;
5054;SDS011;13829;48.990;8.346;2023-03-01T09:38:00;22.43;;;15.33;;
5054;SDS011;13829;48.990;8.346;2023-03-01T09:40:29;22.30;;;14.97;;
5054;SDS011;13829;48.990;8.346;2023-03-01T09:42:58;20.73;;;14.80;;
5054;SDS011;13829;48.990;8.346;2023-03-01T09:45:39;22.60;;;14.77;;
5054;SDS011;13829;48.990;8.346;2023-03-01T09:48:13;22.87;;;15.63;;
5054;SDS011;13829;48.990;8.346;2023-03-01T09:50:47;22.33;;;15.83;;
5054;SDS011;13829;48.990;8.346;2023-03-01T09:53:15;23.00;;;15.97;;
5054;SDS011;13829;48.990;8.346;2023-03-01T09:55:44;23.33;;;14.90;;
5054;SDS011;13829;48.990;8.346;2023-03-01T09:58:29;24.30;;;15.33;;
5054;SDS011;13829;48.990;8.346;2023-03-01T10:01:22;21.17;;;16.00;;
5054;SDS011;13829;48.990;8.346;2023-03-01T10:04:02;22.57;;;15.63;;
5054;SDS011;13829;48.990;8.346;2023-03-01T10:06:49;21.40;;;15.40;;
5054;SDS011;13829;48.990;8.346;2023-03-01T10:09:28;23.30;;;16.63;;
5054;SDS011;13829;48.990;8.346;2023-03-01T10:12:00;20.67;;;14.97;;
5054;SDS011;13829;48.990;8.346;2023-03-01T10:14:35;22.83;;;15.53;;
5054;SDS011;13829;48.990;8.346;2023-03-01T10:17:12;22.57;;;16.10;;
5054;SDS011;13829;48.990;8.346;2023-03-01T10:19:51;22.73;;;15.90;;
5054;SDS011;13829;48.990;8.346;2023-03-01T10:22:18;27.63;;;15.83;;
5054;SDS011;13829;48.990;8.346;2023-03-01T10:24:51;23.03;;;15.67;;
5054;SDS011;13829;48.990;8.346;2023-03-01T10:27:21;23.80;;;15.77;;
5054;SDS011;13829;48.990;8.346;2023-03-01T10:29:53;21.43;;;15.60;;
5054;SDS011;13829;48.990;8.346;2023-03-01T10:32:34;20.90;;;14.90;;
5054;SDS011;13829;48.990;8.346;2023-03-01T10:35:01;22.47;;;15.57;;
5054;SDS011;13829;48.990;8.346;2023-03-01T10:37:46;24.10;;;16.57;;
5054;SDS011;13829;48.990;8.346;2023-03-01T10:40:24;24.93;;;16.77;;
5054;SDS011;13829;48.990;8.346;2023-03-01T10:42:51;22.07;;;16.37;;
5054;SDS011;13829;48.990;8.346;2023-03-01T10:45:27;21.77;;;15.87;;
5054;SDS011;13829;48.990;8.346;2023-03-01T10:48:04;20.80;;;16.30;;
5054;SDS011;13829;48.990;8.346;2023-03-01T10:50:39;20.27;;;15.10;;
5054;SDS011;13829;48.990;8.346;2023-03-01T10:53:16;22.93;;;17.77;;
5054;SDS011;13829;48.990;8.346;2023-03-01T10:55:56;23.67;;;16.33;;
5054;SDS011;13829;48.990;8.346;2023-03-01T10:58:26;21.27;;;15.87;;
5054;SDS011;13829;48.990;8.346;2023-03-01T11:00:55;22.80;;;15.47;;
5054;SDS011;13829;48.990;8.346;2023-03-01T11:03:26;21.87;;;15.63;;
5054;SDS011;13829;48.990;8.346;2023-03-01T11:06:00;21.73;;;15.77;;
5054;SDS011;13829;48.990;8.346;2023-03-01T11:08:38;20.87;;;15.33;;
5054;SDS011;13829;48.990;8.346;2023-03-01T11:11:21;24.30;;;16.33;;
5054;SDS011;13829;48.990;8.346;2023-03-01T11:13:57;21.63;;;16.27;;
5054;SDS011;13829;48.990;8.346;2023-03-01T11:16:28;27.30;;;17.57;;
5054;SDS011;13829;48.990;8.346;2023-03-01T11:19:04;24.27;;;16.23;;
5054;SDS011;13829;48.990;8.346;2023-03-01T11:21:48;22.70;;;16.80;;
5054;SDS011;13829;48.990;8.346;2023-03-01T11:24:26;25.00;;;16.30;;
5054;SDS011;13829;48.990;8.346;2023-03-01T11:27:04;25.27;;;16.57;;
5054;SDS011;13829;48.990;8.346;2023-03-01T11:29:44;22.23;;;16.87;;
5054;SDS011;13829;48.990;8.346;2023-03-01T11:32:19;22.53;;;16.70;;
5054;SDS011;13829;48.990;8.346;2023-03-01T11:34:54;25.37;;;17.37;;
5054;SDS011;13829;48.990;8.346;2023-03-01T11:37:30;24.60;;;18.03;;
5054;SDS011;13829;48.990;8.346;2023-03-01T11:40:07;29.13;;;20.70;;
5054;SDS011;13829;48.990;8.346;2023-03-01T11:42:55;25.20;;;18.40;;
5054;SDS011;13829;48.990;8.346;2023-03-01T11:45:39;25.63;;;17.37;;
5054;SDS011;13829;48.990;8.346;2023-03-01T11:48:25;25.67;;;18.03;;
5054;SDS011;13829;48.990;8.346;2023-03-01T11:51:12;23.50;;;19.07;;
5054;SDS011;13829;48.990;8.346;2023-03-01T11:53:54;23.83;;;18.07;;
5054;SDS011;13829;48.990;8.346;2023-03-01T11:56:34;26.63;;;20.57;;
5054;SDS011;13829;48.990;8.346;2023-03-01T11:59:13;24.77;;;18.33;;
5054;SDS011;13829;48.990;8.346;2023-03-01T12:02:15;25.13;;;17.97;;
5054;SDS011;13829;48.990;8.346;2023-03-01T12:05:14;27.00;;;18.17;;
5054;SDS011;13829;48.990;8.346;2023-03-01T12:08:06;23.80;;;16.90;;
5054;SDS011;13829;48.990;8.346;2023-03-01T12:10:42;25.03;;;17.33;;
5054;SDS011;13829;48.990;8.346;2023-03-01T12:16:37;24.40;;;17.13;;
5054;SDS011;13829;48.990;8.346;2023-03-01T12:19:28;26.27;;;17.77;;
5054;SDS011;13829;48.990;8.346;2023-03-01T12:22:22;23.10;;;17.80;;
5054;SDS011;13829;48.990;8.346;2023-03-01T12:28:08;24.57;;;17.93;;
5054;SDS011;13829;48.990;8.346;2023-03-01T12:30:56;24.17;;;17.53;;
5054;SDS011;13829;48.990;8.346;2023-03-01T12:33:59;19.70;;;15.80;;
5054;SDS011;13829;48.990;8.346;2023-03-01T12:36:46;22.43;;;15.97;;
5054;SDS011;13829;48.990;8.346;2023-03-01T12:39:37;25.53;;;16.43;;
5054;SDS011;13829;48.990;8.346;2023-03-01T12:42:20;23.53;;;16.90;;
5054;SDS011;13829;48.990;8.346;2023-03-01T12:45:02;21.67;;;16.00;;
5054;SDS011;13829;48.990;8.346;2023-03-01T12:48:05;20.73;;;16.07;;
5054;SDS011;13829;48.990;8.346;2023-03-01T12:50:55;22.17;;;16.03;;
5054;SDS011;13829;48.990;8.346;2023-03-01T12:53:29;24.13;;;17.30;;
5054;SDS011;13829;48.990;8.346;2023-03-01T12:56:02;25.50;;;16.87;;
5054;SDS011;13829;48.990;8.346;2023-03-01T12:58:39;25.77;;;16.80;;
5054;SDS011;13829;48.990;8.346;2023-03-01T13:01:20;23.30;;;16.47;;
5054;SDS011;13829;48.990;8.346;2023-03-01T13:06:55;22.27;;;16.57;;
5054;SDS011;13829;48.990;8.346;2023-03-01T13:09:38;21.23;;;15.97;;
5054;SDS011;13829;48.990;8.346;2023-03-01T13:15:30;24.90;;;17.00;;
5054;SDS011;13829;48.990;8.346;2023-03-01T13:18:01;21.83;;;16.40;;
5054;SDS011;13829;48.990;8.346;2023-03-01T13:20:50;23.17;;;16.60;;
5054;SDS011;13829;48.990;8.346;2023-03-01T13:23:26;22.83;;;16.50;;
5054;SDS011;13829;48.990;8.346;2023-03-01T13:26:01;22.50;;;16.57;;
5054;SDS011;13829;48.990;8.346;2023-03-01T13:34:48;22.40;;;16.40;;
5054;SDS011;13829;48.990;8.346;2023-03-01T13:37:24;23.03;;;15.97;;
5054;SDS011;13829;48.990;8.346;2023-03-01T13:43:28;21.43;;;15.53;;
5054;SDS011;13829;48.990;8.346;2023-03-01T13:45:58;22.77;;;16.00;;
5054;SDS011;13829;48.990;8.346;2023-03-01T13:48:29;21.60;;;15.37;;
5054;SDS011;13829;48.990;8.346;2023-03-01T13:50:58;21.50;;;15.97;;
5054;SDS011;13829;48.990;8.346;2023-03-01T13:53:29;22.37;;;16.53;;
5054;SDS011;13829;48.990;8.346;2023-03-01T13:56:02;20.23;;;16.80;;
5054;SDS011;13829;48.990;8.346;2023-03-01T13:58:43;21.97;;;16.00;;
5054;SDS011;13829;48.990;8.346;2023-03-01T14:01:21;24.30;;;17.47;;
5054;SDS011;13829;48.990;8.346;2023-03-01T14:03:56;27.13;;;16.90;;
5054;SDS011;13829;48.990;8.346;2023-03-01T14:06:25;22.70;;;16.77;;
5054;SDS011;13829;48.990;8.346;2023-03-01T14:09:01;22.97;;;15.97;;
5054;SDS011;13829;48.990;8.346;2023-03-01T14:11:42;21.97;;;15.87;;
5054;SDS011;13829;48.990;8.346;2023-03-01T14:14:54;20.07;;;15.20;;
5054;SDS011;13829;48.990;8.346;2023-03-01T14:17:44;21.60;;;16.33;;
5054;SDS011;13829;48.990;8.346;2023-03-01T14:20:28;19.90;;;15.87;;
5054;SDS011;13829;48.990;8.346;2023-03-01T14:23:01;20.17;;;15.40;;
5054;SDS011;13829;48.990;8.346;2023-03-01T14:25:38;18.77;;;15.37;;
5054;SDS011;13829;48.990;8.346;2023-03-01T14:28:14;22.20;;;14.87;;
5054;SDS011;13829;48.990;8.346;2023-03-01T14:30:44;23.00;;;16.57;;
5054;SDS011;13829;48.990;8.346;2023-03-01T14:33:19;21.27;;;15.63;;
5054;SDS011;13829;48.990;8.346;2023-03-01T14:35:58;21.67;;;16.20;;
5054;SDS011;13829;48.990;8.346;2023-03-01T14:38:29;17.70;;;13.90;;
5054;SDS011;13829;48.990;8.346;2023-03-01T14:41:02;21.00;;;15.33;;
5054;SDS011;13829;48.990;8.346;2023-03-01T14:43:33;22.20;;;15.93;;
5054;SDS011;13829;48.990;8.346;2023-03-01T14:46:02;19.47;;;14.37;;
5054;SDS011;13829;48.990;8.346;2023-03-01T14:48:30;27.57;;;15.30;;
5054;SDS011;13829;48.990;8.346;2023-03-01T14:50:59;19.87;;;15.17;;
5054;SDS011;13829;48.990;8.346;2023-03-01T14:53:27;25.07;;;15.67;;
5054;SDS011;13829;48.990;8.346;2023-03-01T14:55:56;27.17;;;15.80;;
5054;SDS011;13829;48.990;8.346;2023-03-01T14:58:27;19.37;;;14.73;;
5054;SDS011;13829;48.990;8.346;2023-03-01T15:00:55;20.57;;;15.13;;
5054;SDS011;13829;48.990;8.346;2023-03-01T15:03:30;20.83;;;14.67;;
5054;SDS011;13829;48.990;8.346;2023-03-01T15:06:03;20.87;;;15.57;;
5054;SDS011;13829;48.990;8.346;2023-03-01T15:08:34;23.67;;;16.13;;
5054;SDS011;13829;48.990;8.346;2023-03-01T15:11:04;24.50;;;17.37;;
5054;SDS011;13829;48.990;8.346;2023-03-01T15:13:47;22.43;;;16.83;;
5054;SDS011;13829;48.990;8.346;2023-03-01T15:16:15;22.03;;;16.07;;
5054;SDS011;13829;48.990;8.346;2023-03-01T15:18:48;21.20;;;16.03;;
5054;SDS011;13829;48.990;8.346;2023-03-01T15:21:21;21.50;;;15.17;;
5054;SDS011;13829;48.990;8.346;2023-03-01T15:23:50;21.20;;;15.63;;
5054;SDS011;13829;48.990;8.346;2023-03-01T15:26:22;23.80;;;16.07;;
5054;SDS011;13829;48.990;8.346;2023-03-01T15:28:54;21.37;;;15.83;;